AF1464 / F-GRHT 7700 Squawk Report (19th of November, 2018)

Aircraft A319 Reg No. F-GRHT Age 17 years old
Model A319 Jet engines 2 First flight 19-02-01
Registered 08-03-01 Rollout 02-01 Delivered 08-03-01
Construction No. 1449 Line No. N/A Series 111
ADSHEX 3944F3 Airline name Air France Owner Takeoff 15 Ltd., Dublin
Airfield based Paris-Charles de Gaulle~Val-d'Oise~F First tracked 2011-04-01 15:45:02
Time Lat Lon Altitude Heading Speed Vertical Rate
2018-11-19 10:12:33 GMT 49.020035 2.548670 0 182 9 0
2018-11-19 10:12:19 GMT 49.020462 2.548105 0 104 18 0
2018-11-19 10:12:04 GMT 49.020824 2.546046 0 104 28 0
2018-11-19 10:11:38 GMT 49.021614 2.541691 0 106 25 0
2018-11-19 10:11:27 GMT 49.021900 2.539972 0 101 20 0
2018-11-19 10:11:16 GMT 49.021980 2.538652 0 92 16 0
2018-11-19 10:11:06 GMT 49.021957 2.537771 0 84 12 0
2018-11-19 10:10:54 GMT 49.021915 2.536938 0 84 8 0
2018-11-19 10:10:43 GMT 49.021889 2.536504 0 84 5 0
2018-11-19 10:10:31 GMT 49.021877 2.536292 0 84 0 0
2018-11-19 10:06:54 GMT 49.021824 2.535402 0 84 0 0
2018-11-19 10:06:18 GMT 49.020576 2.512038 0 84 0 0
2018-11-19 10:06:54 GMT 49.021824 2.535402 0 84 37 0
2018-11-19 10:06:45 GMT 49.021660 2.532173 0 84 69 0
2018-11-19 10:06:34 GMT 49.021294 2.525922 0 87 115 0
2018-11-19 10:06:22 GMT 49.020763 2.515580 300 85 125 -448
2018-11-19 10:06:18 GMT 49.020576 2.512038 350 85 124 -576
2018-11-19 10:06:14 GMT 49.020401 2.508474 400 85 124 -576
2018-11-19 10:06:07 GMT 49.020081 2.503052 475 85 126 -640
2018-11-19 10:06:04 GMT 49.019737 2.495920 1,350 87 125 -768
2018-11-19 10:05:59 GMT 49.019737 2.495920 575 85 126 -640
2018-11-19 10:05:54 GMT 49.019531 2.491572 625 85 126 -640
2018-11-19 10:05:49 GMT 49.019211 2.486502 700 84 125 -448
2018-11-19 10:05:42 GMT 49.018902 2.480959 750 85 124 -448
2018-11-19 10:05:38 GMT 49.018715 2.477272 800 85 126 -768
2018-11-19 10:05:34 GMT 49.018478 2.473403 850 86 126 -768
2018-11-19 10:05:30 GMT 49.018387 2.470445 925 86 125 -704
2018-11-19 10:05:24 GMT 49.018108 2.464551 975 85 125 -640
2018-11-19 10:05:20 GMT 49.017929 2.461290 1,125 85 123 -640
2018-11-19 10:05:13 GMT 49.017506 2.455300 1,350 87 125 -768
2018-11-19 10:05:08 GMT 49.017178 2.450819 1,125 85 123 -640
2018-11-19 10:05:03 GMT 49.016922 2.446219 1,450 81 124 -576
2018-11-19 10:04:59 GMT 49.016762 2.443012 1,250 85 124 -768
2018-11-19 10:04:53 GMT 49.016510 2.436993 1,375 86 125 -768
2018-11-19 10:04:50 GMT 49.016434 2.434773 1,475 85 127 -768
2018-11-19 10:04:40 GMT 49.015877 2.426172 1,500 82 125 -576
2018-11-19 10:04:33 GMT 49.015411 2.419035 1,600 87 129 -1088
2018-11-19 10:04:30 GMT 49.015362 2.417281 1,625 87 129 -896
2018-11-19 10:04:22 GMT 49.015137 2.409668 1,750 84 125 -384
2018-11-19 10:04:19 GMT 49.015083 2.407957 1,775 83 124 -320
2018-11-19 10:04:12 GMT 49.014385 2.399212 1,800 81 123 -192
2018-11-19 10:04:09 GMT 49.014385 2.399212 1,825 83 123 -448
2018-11-19 10:04:03 GMT 49.014011 2.393285 1,900 88 128 -896
2018-11-19 10:03:58 GMT 49.014011 2.389671 1,975 87 127 -960
2018-11-19 10:03:52 GMT 49.013718 2.384244 2,075 81 125 -704
2018-11-19 10:03:49 GMT 49.013454 2.381214 2,175 86 136 -576
2018-11-19 10:03:43 GMT 49.013031 2.375160 2,175 85 134 -576
2018-11-19 10:03:38 GMT 49.012848 2.371240 2,200 85 140 -768
2018-11-19 10:03:32 GMT 49.012527 2.365018 2,300 85 142 -768
2018-11-19 10:03:28 GMT 49.012291 2.361338 2,350 84 142 -704
2018-11-19 10:03:22 GMT 49.011917 2.354688 2,450 86 145 -832
2018-11-19 10:03:17 GMT 49.011684 2.350207 2,500 86 145 -832
2018-11-19 10:03:12 GMT 49.011429 2.344525 2,600 85 144 -768
2018-11-19 10:03:09 GMT 49.011269 2.340883 2,625 84 144 -704
2018-11-19 10:03:06 GMT 49.011173 2.339221 2,625 84 144 -704
2018-11-19 10:03:01 GMT 49.010941 2.334450 2,725 84 142 -704
2018-11-19 10:02:58 GMT 49.010468 2.328609 2,775 85 142 -768
2018-11-19 10:02:51 GMT 49.010338 2.324403 3,075 82 136 -640
2018-11-19 10:02:48 GMT 49.010197 2.320790 2,900 85 140 -704
2018-11-19 10:02:44 GMT 49.010056 2.317465 2,950 85 140 -704
2018-11-19 10:02:41 GMT 49.009872 2.314383 3,000 84 138 -704
2018-11-19 10:02:34 GMT 49.009357 2.307346 3,075 82 136 -640
2018-11-19 10:02:30 GMT 49.009048 2.303256 3,125 85 136 -640
2018-11-19 10:02:27 GMT 49.008938 2.300479 3,150 85 137 -704
2018-11-19 10:02:23 GMT 49.008801 2.296793 3,200 84 137 -768
2018-11-19 10:02:16 GMT 49.008408 2.290579 3,300 84 138 -768
2018-11-19 10:02:10 GMT 49.008057 2.284289 3,375 85 139 -704
2018-11-19 10:02:07 GMT 49.007820 2.280386 3,425 85 140 -768
2018-11-19 10:02:02 GMT 49.007587 2.276194 3,500 84 142 -768
2018-11-19 10:01:59 GMT 49.007446 2.273677 3,625 84 145 -896
2018-11-19 10:01:56 GMT 49.007217 2.270195 3,575 84 144 -832
2018-11-19 10:01:50 GMT 49.006844 2.263690 3,675 84 145 -896
2018-11-19 10:01:44 GMT 49.006565 2.258413 3,750 84 146 -896
2018-11-19 10:01:40 GMT 49.006302 2.254451 3,800 84 147 -896
2018-11-19 10:01:34 GMT 49.005890 2.247760 3,900 85 148 -896
2018-11-19 10:01:29 GMT 49.005634 2.242512 3,975 85 149 -896
2018-11-19 10:01:24 GMT 49.005386 2.237126 4,050 85 149 -896
2018-11-19 10:01:19 GMT 49.005123 2.232610 4,200 84 148 -768
2018-11-19 10:01:15 GMT 49.004704 2.225960 4,200 86 148 -704
2018-11-19 10:01:07 GMT 49.004330 2.219889 4,300 86 148 -704
2018-11-19 10:01:03 GMT 49.004150 2.215435 4,350 85 147 -704
2018-11-19 10:01:00 GMT 49.004013 2.212125 4,400 85 147 -704
2018-11-19 10:00:56 GMT 49.003773 2.207674 4,450 85 147 -704
2018-11-19 10:00:53 GMT 49.003647 2.205505 4,475 85 146 -704
2018-11-19 10:00:49 GMT 49.003326 2.198533 4,575 85 146 -704
2018-11-19 10:00:43 GMT 49.003098 2.194660 4,600 84 146 -704
2018-11-19 10:00:37 GMT 49.002701 2.188448 4,675 84 146 -704
2018-11-19 10:00:31 GMT 49.002331 2.183099 4,750 84 148 -704
2018-11-19 10:00:28 GMT 49.002094 2.179341 4,800 85 149 -768
2018-11-19 10:00:25 GMT 49.001907 2.175716 4,850 85 150 -896
2018-11-19 10:00:22 GMT 49.001770 2.173532 4,875 85 151 -1024
2018-11-19 10:00:17 GMT 49.001450 2.167405 4,975 85 152 -1216
2018-11-19 10:00:11 GMT 49.001163 2.161560 5,100 84 153 -768
2018-11-19 10:00:07 GMT 49.000854 2.156419 5,200 84 216 0
2018-11-19 10:00:04 GMT 49.000443 2.150081 5,250 84 157 -960
2018-11-19 09:59:55 GMT 49.000095 2.143274 5,350 85 162 -1088
2018-11-19 09:59:51 GMT 48.999863 2.139443 5,375 85 162 -1088
2018-11-19 09:59:48 GMT 48.999676 2.136263 5,475 84 164 -896
2018-11-19 09:59:44 GMT 48.999348 2.130408 5,550 84 169 -576
2018-11-19 09:59:41 GMT 48.998978 2.124481 5,600 83 173 -448
2018-11-19 09:59:34 GMT 48.998566 2.118460 5,650 85 180 -1088
2018-11-19 09:59:28 GMT 48.998245 2.111347 5,775 85 181 -1408
2018-11-19 09:59:20 GMT 48.997719 2.101569 5,925 84 181 -896
2018-11-19 09:59:14 GMT 48.997253 2.093907 6,025 84 190 -1280
2018-11-19 09:59:11 GMT 48.996964 2.088529 6,100 86 187 -1024
2018-11-19 09:59:08 GMT 48.996826 2.085923 6,125 86 189 -1088
2018-11-19 09:59:05 GMT 48.996094 2.073951 6,250 83 192 -1088
2018-11-19 09:59:00 GMT 48.995953 2.071357 6,350 84 191 -1024
2018-11-19 09:58:50 GMT 48.995361 2.061697 6,450 85 196 -832
2018-11-19 09:58:47 GMT 48.995159 2.058274 6,500 85 197 -704
2018-11-19 09:58:39 GMT 48.994461 2.045264 6,725 84 212 -1024
2018-11-19 09:58:28 GMT 48.993530 2.029941 6,775 85 216 -1792
2018-11-19 09:58:23 GMT 48.993027 2.020710 6,975 85 216 -1664
2018-11-19 09:58:20 GMT 48.992832 2.016931 7,050 85 215 -1536
2018-11-19 09:58:16 GMT 48.992554 2.011799 7,150 84 216 -1472
2018-11-19 09:58:08 GMT 48.991699 1.998948 7,350 84 219 -1408
2018-11-19 09:57:57 GMT 48.990692 1.981905 7,650 85 226 -1216
2018-11-19 09:57:53 GMT 48.990326 1.974581 7,700 85 229 -1280
2018-11-19 09:57:45 GMT 48.989761 1.964095 7,925 84 232 -1280
2018-11-19 09:57:41 GMT 48.989292 1.957301 7,950 84 232 -1280
2018-11-19 09:57:36 GMT 48.988735 1.947905 8,225 87 233 -1536
2018-11-19 09:57:25 GMT 48.988129 1.930706 8,375 86 233 -1536
2018-11-19 09:57:20 GMT 48.987854 1.922819 8,675 88 232 -1856
2018-11-19 09:57:14 GMT 48.987579 1.911410 8,700 89 232 -1856
2018-11-19 09:57:09 GMT 48.987579 1.904860 11,275 185 316 -2176
2018-11-19 09:57:04 GMT 48.987759 1.897527 9,000 93 232 -2240
2018-11-19 09:57:01 GMT 48.987991 1.892684 9,125 109 239 -1728
2018-11-19 09:56:54 GMT 48.989456 1.880493 9,325 109 239 -1728
2018-11-19 09:56:51 GMT 48.990829 1.874084 9,400 109 239 -1728
2018-11-19 09:56:45 GMT 48.993851 1.864788 9,675 126 252 -1664
2018-11-19 09:56:41 GMT 48.995998 1.860303 9,750 128 253 -1664
2018-11-19 09:56:34 GMT 49.001266 1.850422 9,950 130 258 -1344
2018-11-19 09:56:31 GMT 49.003399 1.846715 10,000 132 261 -1344
2018-11-19 09:56:23 GMT 49.010754 1.836162 10,200 144 276 -1216
2018-11-19 09:56:19 GMT 49.015224 1.831753 10,275 149 282 -1088
2018-11-19 09:56:13 GMT 49.022461 1.826829 10,400 161 295 -1280
2018-11-19 09:56:08 GMT 49.028000 1.824435 10,475 169 304 -1408
2018-11-19 09:56:02 GMT 49.037102 1.822719 10,600 177 311 -1664
2018-11-19 09:55:59 GMT 49.042465 1.822745 10,775 184 315 -1792
2018-11-19 09:55:53 GMT 49.050339 1.823660 11,025 185 317 -2048
2018-11-19 09:55:50 GMT 49.054420 1.824164 11,025 185 316 -2112
2018-11-19 09:55:47 GMT 49.059631 1.824787 11,150 185 316 -2112
2018-11-19 09:55:43 GMT 49.065968 1.825610 11,275 185 317 -2176
2018-11-19 09:55:40 GMT 49.068897 1.825899 12,125 186 317 -1920
2018-11-19 09:55:36 GMT 49.074764 1.826622 11,550 185 316 -2176
2018-11-19 09:55:31 GMT 49.082382 1.827463 11,725 185 316 -2048
2018-11-19 09:55:27 GMT 49.089203 1.828308 11,900 185 316 -1920
2018-11-19 09:55:20 GMT 49.098907 1.829435 12,125 185 317 -2112
2018-11-19 09:55:16 GMT 49.106140 1.830350 12,275 186 317 -2048
2018-11-19 09:55:12 GMT 49.110031 1.830843 12,375 186 317 -1920
2018-11-19 09:55:09 GMT 49.114426 1.831477 12,475 186 317 -1856
2018-11-19 09:55:05 GMT 49.124725 1.832956 12,625 186 318 -1728
2018-11-19 09:55:02 GMT 49.124725 1.832956 12,725 186 319 -1664
2018-11-19 09:54:59 GMT 49.129696 1.833633 12,775 186 319 -1664
2018-11-19 09:54:56 GMT 49.134769 1.834355 12,875 186 321 -1536
2018-11-19 09:54:52 GMT 49.139797 1.835078 13,000 185 323 -1408
2018-11-19 09:54:49 GMT 49.144409 1.835632 13,050 185 323 -1344
2018-11-19 09:54:45 GMT 49.154480 1.836548 13,250 182 326 -1344
2018-11-19 09:54:42 GMT 49.158737 1.836618 13,250 182 326 -1344
2018-11-19 09:54:39 GMT 49.158737 1.836618 13,275 176 324 -1792
2018-11-19 09:54:35 GMT 49.166794 1.835703 13,425 170 320 -2304
2018-11-19 09:54:32 GMT 49.172836 1.833801 13,550 164 314 -2560
2018-11-19 09:54:29 GMT 49.172836 1.833801 13,625 162 312 -2560
2018-11-19 09:54:24 GMT 49.180710 1.829787 13,850 158 304 -2816
2018-11-19 09:54:19 GMT 49.187698 1.825610 14,125 158 301 -3008
2018-11-19 09:54:14 GMT 49.193474 1.822285 14,350 159 298 -2944
2018-11-19 09:54:08 GMT 49.200596 1.818237 14,550 159 293 -2560
2018-11-19 09:54:04 GMT 49.206924 1.814696 14,800 160 291 -2048
2018-11-19 09:53:59 GMT 49.213806 1.810984 14,925 160 291 -1408
2018-11-19 09:53:53 GMT 49.220398 1.807533 15,200 175 317 -1088
2018-11-19 09:53:49 GMT 49.225388 1.805068 15,150 164 303 -832
2018-11-19 09:53:46 GMT 49.229095 1.803378 15,100 164 303 -832
2018-11-19 09:53:42 GMT 49.234314 1.801476 15,175 171 312 -1088
2018-11-19 09:53:37 GMT 49.241776 1.799997 15,300 176 319 -1152
2018-11-19 09:53:30 GMT 49.253712 1.799011 15,425 176 320 -1344
2018-11-19 09:53:27 GMT 49.261368 1.798377 15,550 176 320 -1344
2018-11-19 09:53:21 GMT 49.273773 1.797204 15,700 176 321 -1600
2018-11-19 09:53:15 GMT 49.273773 1.797204 15,775 176 321 -1600
2018-11-19 09:53:11 GMT 49.281876 1.796409 15,900 176 321 -1664
2018-11-19 09:53:07 GMT 49.287506 1.795831 16,000 176 321 -1728
2018-11-19 09:53:04 GMT 49.291138 1.795470 16,750 176 322 -1664
2018-11-19 09:53:01 GMT 49.295563 1.794964 16,175 175 320 -1664
2018-11-19 09:52:58 GMT 49.299866 1.794504 17,400 187 329 -1408
2018-11-19 09:52:55 GMT 49.304779 1.793952 16,350 175 320 -1600
2018-11-19 09:52:51 GMT 49.311859 1.793166 16,450 175 321 -1536
2018-11-19 09:52:44 GMT 49.320282 1.792250 16,675 176 321 -1600
2018-11-19 09:52:41 GMT 49.326874 1.791617 16,725 176 322 -1600
2018-11-19 09:52:33 GMT 49.337738 1.790844 16,925 179 324 -1792
2018-11-19 09:52:30 GMT 49.342346 1.790701 17,025 182 325 -1728
2018-11-19 09:52:26 GMT 49.347153 1.790771 17,125 182 325 -1728
2018-11-19 09:52:23 GMT 49.352646 1.791194 17,275 186 328 -1408
2018-11-19 09:52:20 GMT 49.358185 1.792039 17,300 186 328 -1408
2018-11-19 09:52:13 GMT 49.366646 1.793374 17,525 186 328 -1408
2018-11-19 09:52:09 GMT 49.373909 1.794602 17,600 187 329 -1408
2018-11-19 09:52:06 GMT 49.378193 1.795253 17,625 186 329 -1344
2018-11-19 09:52:02 GMT 49.390732 1.797251 18,000 187 332 -1344
2018-11-19 09:51:57 GMT 49.390732 1.797251 17,800 186 330 -1344
2018-11-19 09:51:54 GMT 49.396954 1.798288 17,900 187 330 -1344
2018-11-19 09:51:50 GMT 49.402210 1.799084 17,975 187 330 -1344
2018-11-19 09:51:47 GMT 49.408173 1.800095 18,100 187 331 -1344
2018-11-19 09:51:43 GMT 49.413208 1.800913 18,525 187 332 -1344
2018-11-19 09:51:40 GMT 49.416870 1.801476 18,200 187 332 -1344
2018-11-19 09:51:37 GMT 49.423161 1.802553 18,300 187 333 -1344
2018-11-19 09:51:31 GMT 49.431839 1.803926 18,450 187 334 -1472
2018-11-19 09:51:28 GMT 49.437267 1.804876 18,525 187 334 -1536
2018-11-19 09:51:24 GMT 49.441727 1.805589 18,675 187 334 -1472
2018-11-19 09:51:20 GMT 49.448021 1.806583 18,775 187 335 -1472
2018-11-19 09:51:15 GMT 49.459190 1.808439 18,875 187 337 -1472
2018-11-19 09:51:09 GMT 49.465336 1.809478 18,975 187 337 -1472
2018-11-19 09:51:05 GMT 49.471203 1.810591 19,075 188 337 -1472
2018-11-19 09:50:58 GMT 49.482239 1.813106 19,400 191 342 -1344
2018-11-19 09:50:55 GMT 49.486862 1.814407 19,350 191 342 -1344
2018-11-19 09:50:52 GMT 49.490891 1.815635 19,375 191 343 -1344
2018-11-19 09:50:49 GMT 49.496521 1.817298 19,450 192 344 -1408
2018-11-19 09:50:42 GMT 49.506676 1.820390 19,700 192 345 -1536
2018-11-19 09:50:38 GMT 49.512680 1.822172 19,675 192 345 -1536
2018-11-19 09:50:33 GMT 49.522156 1.824959 19,850 192 345 -1664
2018-11-19 09:50:30 GMT 49.527191 1.826477 19,950 192 345 -1728
2018-11-19 09:50:27 GMT 49.530697 1.827516 19,975 192 345 -1792
2018-11-19 09:50:22 GMT 49.537811 1.829657 20,125 191 345 -1792
2018-11-19 09:50:19 GMT 49.543442 1.831320 20,300 191 345 -1728
2018-11-19 09:50:16 GMT 49.547501 1.832490 20,350 191 345 -1728
2018-11-19 09:50:12 GMT 49.553600 1.834271 20,450 191 345 -1600
2018-11-19 09:50:06 GMT 49.563004 1.837092 20,700 191 345 -1536
2018-11-19 09:50:00 GMT 49.572372 1.839849 21,050 191 346 -1536
2018-11-19 09:49:57 GMT 49.577763 1.841398 24,175 191 362 -1472
2018-11-19 09:49:53 GMT 49.582741 1.842957 21,075 192 348 -1472
2018-11-19 09:49:49 GMT 49.589584 1.844980 21,050 192 347 -1472
2018-11-19 09:49:45 GMT 49.595406 1.846742 21,150 192 347 -1472
2018-11-19 09:49:40 GMT 49.603828 1.849340 21,575 192 350 -1600
2018-11-19 09:49:36 GMT 49.610092 1.851196 21,375 192 348 -1472
2018-11-19 09:49:33 GMT 49.615002 1.852681 21,950 192 356 -1600
2018-11-19 09:49:30 GMT 49.621193 1.854611 22,225 191 364 -1472
2018-11-19 09:49:26 GMT 49.625793 1.855967 21,900 192 350 -1536
2018-11-19 09:49:22 GMT 49.642685 1.861098 21,900 192 350 -1536
2018-11-19 09:49:17 GMT 49.642685 1.861098 22,075 192 351 -1472
2018-11-19 09:49:13 GMT 49.648544 1.862905 22,000 192 351 -1472
2018-11-19 09:49:09 GMT 49.655411 1.865001 26,800 191 353 -1408
2018-11-19 09:49:05 GMT 49.659225 1.866117 22,175 191 352 -1472
2018-11-19 09:49:01 GMT 49.666489 1.868270 22,300 191 352 -1472
2018-11-19 09:48:58 GMT 49.671158 1.869700 22,425 191 353 -1472
2018-11-19 09:48:55 GMT 49.675415 1.870928 22,475 191 353 -1408
2018-11-19 09:48:52 GMT 49.680222 1.872427 22,500 192 353 -1408
2018-11-19 09:48:49 GMT 49.684525 1.873675 22,800 192 354 -1664
2018-11-19 09:48:46 GMT 49.689671 1.875247 22,650 192 354 -1664
2018-11-19 09:48:42 GMT 49.704384 1.879776 22,850 192 355 -1728
2018-11-19 09:48:37 GMT 49.704384 1.879776 23,450 192 358 -1472
2018-11-19 09:48:34 GMT 49.709831 1.881409 23,025 192 355 -1664
2018-11-19 09:48:30 GMT 49.717117 1.883649 23,150 192 355 -1600
2018-11-19 09:48:26 GMT 49.722725 1.885343 23,325 192 356 -1600
2018-11-19 09:48:21 GMT 49.730576 1.887769 23,450 192 358 -1472
2018-11-19 09:48:18 GMT 49.735840 1.889432 23,475 192 360 -1472
2018-11-19 09:48:15 GMT 49.740505 1.890836 23,650 192 358 -1472
2018-11-19 09:48:11 GMT 49.745953 1.892543 25,250 201 376 -1472
2018-11-19 09:48:08 GMT 49.750610 1.893954 23,800 192 359 -1472
2018-11-19 09:48:05 GMT 49.761784 1.897443 23,875 192 360 -1472
2018-11-19 09:47:58 GMT 49.767700 1.899189 23,975 191 361 -1536
2018-11-19 09:47:55 GMT 49.771866 1.900418 24,075 191 361 -1536
2018-11-19 09:47:52 GMT 49.788116 1.905261 26,800 203 412 -768
2018-11-19 09:47:46 GMT 49.788116 1.905261 24,425 191 364 -1472
2018-11-19 09:47:43 GMT 49.791855 1.906425 24,650 192 365 -1536
2018-11-19 09:47:38 GMT 49.802052 1.909394 24,475 191 364 -1472
2018-11-19 09:47:34 GMT 49.809082 1.911549 24,550 192 365 -1536
2018-11-19 09:47:30 GMT 49.819519 1.915163 24,725 201 376 -1472
2018-11-19 09:47:27 GMT 49.819519 1.915163 25,300 198 372 -1344
2018-11-19 09:47:24 GMT 49.822952 1.916520 24,925 198 372 -1344
2018-11-19 09:47:21 GMT 49.829361 1.919499 24,900 199 373 -1344
2018-11-19 09:47:15 GMT 49.840267 1.925502 25,325 203 379 -1472
2018-11-19 09:47:10 GMT 49.846741 1.929511 25,150 203 378 -1472
2018-11-19 09:47:07 GMT 49.852020 1.932943 25,225 203 379 -1472
2018-11-19 09:47:04 GMT 49.857216 1.936340 25,300 203 379 -1472
2018-11-19 09:47:01 GMT 49.861122 1.938864 25,575 203 380 -1472
2018-11-19 09:46:56 GMT 49.870949 1.945248 25,525 203 381 -1472
2018-11-19 09:46:52 GMT 49.876465 1.948845 25,575 203 382 -1472
2018-11-19 09:46:47 GMT 49.884495 1.954008 25,725 203 383 -1408
2018-11-19 09:46:44 GMT 49.891197 1.958313 25,800 203 385 -1216
2018-11-19 09:46:41 GMT 49.893013 1.959501 25,950 203 385 -1216
2018-11-19 09:46:38 GMT 49.898346 1.962867 26,225 203 385 -1216
2018-11-19 09:46:35 GMT 49.904068 1.966553 26,075 203 401 -704
2018-11-19 09:46:32 GMT 49.910065 1.970383 26,050 203 393 -1088
2018-11-19 09:46:26 GMT 49.918896 1.975980 26,175 202 431 -896
2018-11-19 09:46:22 GMT 49.925446 1.980141 26,200 203 398 -768
2018-11-19 09:46:19 GMT 49.930393 1.983255 26,800 217 471 -1024
2018-11-19 09:46:15 GMT 49.937714 1.987875 26,275 203 400 -704
2018-11-19 09:46:11 GMT 49.946411 1.993368 26,325 203 404 -704
2018-11-19 09:46:08 GMT 49.949066 1.994958 26,800 217 471 -1024
2018-11-19 09:46:03 GMT 49.958176 2.000668 26,725 203 412 -768
2018-11-19 09:46:00 GMT 49.964333 2.004559 28,000 203 415 -768
2018-11-19 09:45:57 GMT 49.968796 2.007390 26,525 203 413 -768
2018-11-19 09:45:54 GMT 49.974747 2.011076 26,550 203 415 -768
2018-11-19 09:45:50 GMT 49.980995 2.015026 26,575 203 417 -768
2018-11-19 09:45:46 GMT 49.987930 2.019388 26,725 203 421 -832
2018-11-19 09:45:43 GMT 49.994110 2.023291 26,675 203 423 -832
2018-11-19 09:45:39 GMT 50.003807 2.029353 26,750 203 427 -832
2018-11-19 09:45:35 GMT 50.010696 2.033658 26,925 202 431 -896
2018-11-19 09:45:31 GMT 50.019333 2.039048 26,875 202 434 -896
2018-11-19 09:45:27 GMT 50.023178 2.041506 26,925 221 498 0
2018-11-19 09:45:23 GMT 50.033020 2.047649 27,000 203 441 -896
2018-11-19 09:45:20 GMT 50.036957 2.050107 27,100 203 441 -896
2018-11-19 09:45:16 GMT 50.043961 2.054588 27,075 203 446 -896
2018-11-19 09:45:13 GMT 50.051708 2.059491 27,125 203 448 -960
2018-11-19 09:45:10 GMT 50.054920 2.061644 27,175 203 447 -896
2018-11-19 09:45:07 GMT 50.063370 2.067309 27,250 221 485 -832
2018-11-19 09:45:03 GMT 50.069538 2.071665 27,300 208 458 -1152
2018-11-19 09:45:00 GMT 50.073395 2.074609 27,325 209 460 -1088
2018-11-19 09:44:57 GMT 50.080013 2.079979 27,375 209 459 -1088
2018-11-19 09:44:53 GMT 50.093445 2.092606 27,500 215 468 -1024
2018-11-19 09:44:47 GMT 50.098068 2.097449 27,625 220 476 -768
2018-11-19 09:44:41 GMT 50.108917 2.109953 27,825 220 476 -768
2018-11-19 09:44:37 GMT 50.115509 2.118265 27,925 221 485 -704
2018-11-19 09:44:34 GMT 50.120327 2.124593 27,775 221 481 -576
2018-11-19 09:44:28 GMT 50.132477 2.140775 27,875 221 484 -640
2018-11-19 09:44:24 GMT 50.137226 2.147159 27,875 221 484 -640
2018-11-19 09:44:19 GMT 50.146954 2.160075 27,975 221 486 -64
2018-11-19 09:44:16 GMT 50.151146 2.165643 28,000 221 491 0
2018-11-19 09:44:13 GMT 50.155613 2.171507 28,000 221 488 0
2018-11-19 09:44:09 GMT 50.162613 2.180786 28,000 221 490 0
2018-11-19 09:44:06 GMT 50.170395 2.190977 28,000 220 519 0
2018-11-19 09:44:03 GMT 50.175293 2.197482 28,000 220 501 0
2018-11-19 09:43:59 GMT 50.179962 2.203626 28,000 221 493 0
2018-11-19 09:43:55 GMT 50.188980 2.215552 28,000 221 496 0
2018-11-19 09:43:52 GMT 50.194111 2.222282 28,000 221 496 0
2018-11-19 09:43:49 GMT 50.197906 2.227261 28,000 221 496 -64
2018-11-19 09:43:46 GMT 50.203400 2.234489 28,000 221 498 -64
2018-11-19 09:43:43 GMT 50.208126 2.240691 28,000 220 499 0
2018-11-19 09:43:38 GMT 50.222809 2.259859 28,000 220 501 0
2018-11-19 09:43:35 GMT 50.222809 2.259859 28,000 220 503 0
2018-11-19 09:43:30 GMT 50.231728 2.271498 28,000 220 504 0
2018-11-19 09:43:27 GMT 50.236149 2.277213 28,000 220 505 0
2018-11-19 09:43:23 GMT 50.245132 2.288868 28,000 220 507 64
2018-11-19 09:43:20 GMT 50.249603 2.294658 27,975 220 509 64
2018-11-19 09:43:17 GMT 50.256638 2.303660 27,975 220 512 64
2018-11-19 09:43:14 GMT 50.260620 2.308719 27,975 220 511 64
2018-11-19 09:43:08 GMT 50.271809 2.323015 27,975 220 513 128
2018-11-19 09:43:05 GMT 50.276882 2.329473 27,975 220 517 0
2018-11-19 09:42:58 GMT 50.291794 2.348617 27,975 220 518 0
2018-11-19 09:42:55 GMT 50.295689 2.353747 28,000 220 518 0
2018-11-19 09:42:50 GMT 50.309784 2.372252 28,000 220 517 0
2018-11-19 09:42:47 GMT 50.309784 2.372252 28,000 220 517 0
2018-11-19 09:42:44 GMT 50.318115 2.383094 28,000 220 517 0
2018-11-19 09:42:40 GMT 50.323483 2.390120 28,000 220 517 0
2018-11-19 09:42:37 GMT 50.329765 2.398286 28,000 220 518 0
2018-11-19 09:42:34 GMT 50.335831 2.406150 28,000 220 518 0
2018-11-19 09:42:29 GMT 50.342381 2.414765 27,975 220 519 0
2018-11-19 09:42:24 GMT 50.352356 2.427762 27,975 220 519 0
2018-11-19 09:42:21 GMT 50.357327 2.434214 28,000 225 520 0
2018-11-19 09:42:17 GMT 50.365631 2.445036 28,000 222 520 0
2018-11-19 09:42:14 GMT 50.372406 2.453926 28,000 221 519 0
2018-11-19 09:42:10 GMT 50.378132 2.461457 28,000 221 519 0
2018-11-19 09:42:05 GMT 50.389023 2.476188 27,975 222 519 0
2018-11-19 09:42:02 GMT 50.391682 2.479941 27,975 223 520 0
2018-11-19 09:41:58 GMT 50.400524 2.493080 28,000 226 520 0
2018-11-19 09:41:54 GMT 50.408157 2.505750 28,000 229 521 0
2018-11-19 09:41:51 GMT 50.411407 2.511388 28,000 230 521 0
2018-11-19 09:41:47 GMT 50.416866 2.521511 28,000 232 519 0
2018-11-19 09:41:44 GMT 50.421204 2.530036 28,000 234 520 0
2018-11-19 09:41:41 GMT 50.425919 2.539866 28,000 238 520 0
2018-11-19 09:41:34 GMT 50.435944 2.563284 28,000 241 519 0
2018-11-19 09:41:30 GMT 50.439606 2.572969 28,000 241 519 0
2018-11-19 09:41:25 GMT 50.446609 2.593352 28,000 246 519 0
2018-11-19 09:41:22 GMT 50.449310 2.602052 28,000 246 519 0
2018-11-19 09:41:19 GMT 50.451687 2.610218 28,000 249 522 128
2018-11-19 09:41:16 GMT 50.454758 2.621179 28,000 247 521 0
2018-11-19 09:41:12 GMT 50.459366 2.637906 28,000 247 519 0
2018-11-19 09:41:08 GMT 50.462345 2.648596 28,000 247 520 0
2018-11-19 09:41:05 GMT 50.466022 2.661958 28,000 247 521 0
2018-11-19 09:41:01 GMT 50.473389 2.688615 28,000 247 521 0
2018-11-19 09:40:58 GMT 50.473389 2.688615 28,000 248 522 64
2018-11-19 09:40:53 GMT 50.476917 2.701597 28,000 248 522 64
2018-11-19 09:40:50 GMT 50.480164 2.713768 28,000 249 522 128
2018-11-19 09:40:47 GMT 50.482269 2.721714 28,000 249 522 128
2018-11-19 09:40:44 GMT 50.484970 2.732255 28,000 250 522 128
2018-11-19 09:40:41 GMT 50.488220 2.746221 27,975 256 520 0
2018-11-19 09:40:37 GMT 50.491207 2.760612 27,975 254 521 0
2018-11-19 09:40:34 GMT 50.492931 2.769594 27,975 256 520 0
2018-11-19 09:40:30 GMT 50.496750 2.793719 28,000 264 514 0
2018-11-19 09:40:24 GMT 50.498146 2.804854 28,000 261 517 0
2018-11-19 09:40:21 GMT 50.499252 2.814885 28,000 263 515 0
2018-11-19 09:40:18 GMT 50.500660 2.831281 28,000 265 512 0
2018-11-19 09:40:15 GMT 50.501404 2.842490 28,000 14 397 0
2018-11-19 09:40:12 GMT 50.501953 2.853916 28,000 268 511 0
2018-11-19 09:40:07 GMT 50.502289 2.866244 28,000 274 505 64
2018-11-19 09:40:03 GMT 50.502274 2.886730 28,000 292 487 0
2018-11-19 09:40:00 GMT 50.502136 2.894319 27,975 274 505 64
2018-11-19 09:39:57 GMT 50.501682 2.904919 27,975 283 497 -64
2018-11-19 09:39:54 GMT 50.501080 2.915831 27,975 277 503 64
2018-11-19 09:39:51 GMT 50.500240 2.926743 27,975 279 501 0
2018-11-19 09:39:46 GMT 50.498425 2.944707 27,975 281 500 0
2018-11-19 09:39:43 GMT 50.496689 2.958503 28,000 288 492 0
2018-11-19 09:39:40 GMT 50.495636 2.965441 28,000 288 492 0
2018-11-19 09:39:36 GMT 50.493393 2.978740 28,000 288 491 0
2018-11-19 09:39:32 GMT 50.489685 2.997388 28,000 289 491 0
2018-11-19 09:39:29 GMT 50.488232 3.003944 28,000 292 487 0
2018-11-19 09:39:26 GMT 50.485565 3.014880 28,000 293 485 0
2018-11-19 09:39:23 GMT 50.482365 3.026808 28,000 296 481 0
2018-11-19 09:39:19 GMT 50.479340 3.036977 28,000 300 476 0
2018-11-19 09:39:16 GMT 50.476360 3.046256 28,000 298 479 0
2018-11-19 09:39:13 GMT 50.473240 3.055387 28,000 301 475 0
2018-11-19 09:39:09 GMT 50.469234 3.066151 28,000 303 472 0
2018-11-19 09:39:06 GMT 50.465511 3.075355 28,000 307 468 0
2018-11-19 09:39:02 GMT 50.455811 3.096771 28,000 308 466 0
2018-11-19 09:38:59 GMT 50.455811 3.096771 28,000 308 466 0
2018-11-19 09:38:56 GMT 50.445263 3.116406 28,000 318 455 64
2018-11-19 09:38:50 GMT 50.445263 3.116406 28,000 317 456 0
2018-11-19 09:38:47 GMT 50.440430 3.124454 28,000 345 422 0
2018-11-19 09:38:44 GMT 50.436356 3.130814 28,000 318 455 64
2018-11-19 09:38:39 GMT 50.426128 3.145282 28,000 321 450 64
2018-11-19 09:38:35 GMT 50.419464 3.153654 28,000 323 448 0
2018-11-19 09:38:28 GMT 50.409439 3.164930 28,000 333 436 64
2018-11-19 09:38:25 GMT 50.403946 3.170495 28,000 330 440 64
2018-11-19 09:38:16 GMT 50.387970 3.184300 28,000 336 432 0
2018-11-19 09:38:13 GMT 50.382889 3.188131 28,000 337 430 0
2018-11-19 09:38:07 GMT 50.370758 3.195793 28,000 342 426 0
2018-11-19 09:38:04 GMT 50.365952 3.198467 28,000 345 422 0
2018-11-19 09:38:01 GMT 50.361328 3.200733 28,000 350 417 0
2018-11-19 09:37:58 GMT 50.355652 3.203165 28,000 350 417 0
2018-11-19 09:37:52 GMT 50.344337 3.207191 28,000 355 411 0
2018-11-19 09:37:46 GMT 50.332764 3.209887 28,000 23 392 0
2018-11-19 09:37:43 GMT 50.326134 3.210903 28,000 359 409 0
2018-11-19 09:37:38 GMT 50.315781 3.211477 28,000 0 407 0
2018-11-19 09:37:35 GMT 50.310471 3.211405 28,000 1 406 0
2018-11-19 09:37:32 GMT 50.306164 3.211126 28,000 8 401 0
2018-11-19 09:37:28 GMT 50.297516 3.209887 27,975 10 399 0
2018-11-19 09:37:25 GMT 50.291611 3.208658 28,000 9 399 0
2018-11-19 09:37:22 GMT 50.286007 3.207043 27,975 11 398 0
2018-11-19 09:37:17 GMT 50.279350 3.204742 27,975 19 394 0
2018-11-19 09:37:14 GMT 50.272293 3.201720 28,000 17 395 0
2018-11-19 09:37:11 GMT 50.268768 3.199985 28,000 19 394 0
2018-11-19 09:37:08 GMT 50.264099 3.197455 28,000 23 392 0
2018-11-19 09:37:04 GMT 50.257423 3.193310 28,000 22 392 0
2018-11-19 09:37:01 GMT 50.250549 3.188782 28,000 23 392 0
2018-11-19 09:36:58 GMT 50.245739 3.185590 28,000 23 392 0
2018-11-19 09:36:54 GMT 50.240524 3.182132 28,000 23 392 0
2018-11-19 09:36:50 GMT 50.229027 3.174455 28,000 23 392 0
2018-11-19 09:36:44 GMT 50.223347 3.170669 28,000 23 392 0
2018-11-19 09:36:38 GMT 50.209007 3.161093 28,000 23 392 0
2018-11-19 09:36:34 GMT 50.207153 3.159870 27,975 23 392 0
2018-11-19 09:36:31 GMT 50.199783 3.154955 28,000 23 392 0
2018-11-19 09:36:24 GMT 50.189877 3.148325 28,000 23 392 0
2018-11-19 09:36:21 GMT 50.182892 3.143680 28,000 23 392 0
2018-11-19 09:36:18 GMT 50.179634 3.141496 28,000 23 392 0
2018-11-19 09:36:13 GMT 50.171173 3.135874 28,000 23 392 0
2018-11-19 09:36:07 GMT 50.161835 3.129658 28,000 22 392 0
2018-11-19 09:36:03 GMT 50.155010 3.125165 28,000 23 392 0
2018-11-19 09:35:59 GMT 50.148148 3.120623 28,000 23 392 0
2018-11-19 09:35:55 GMT 50.141323 3.116109 28,000 358 392 1472
2018-11-19 09:35:51 GMT 50.135834 3.112456 28,000 23 392 0
2018-11-19 09:35:46 GMT 50.127357 3.106830 28,000 22 394 -64
2018-11-19 09:35:43 GMT 50.120178 3.102048 28,000 23 392 64
2018-11-19 09:35:39 GMT 50.115299 3.098813 28,000 23 391 0
2018-11-19 09:35:36 GMT 50.110153 3.095398 28,000 23 392 64
2018-11-19 09:35:32 GMT 50.103195 3.090796 27,975 23 393 128
2018-11-19 09:35:29 GMT 50.099167 3.088098 27,975 22 389 1088
2018-11-19 09:35:25 GMT 50.092209 3.083472 27,975 22 394 -64
2018-11-19 09:35:21 GMT 50.080433 3.075726 27,975 22 394 0
2018-11-19 09:35:15 GMT 50.074448 3.071763 27,975 22 394 64
2018-11-19 09:35:11 GMT 50.068188 3.067635 27,950 22 392 1024
2018-11-19 09:35:08 GMT 50.063255 3.064369 27,875 22 392 1024
2018-11-19 09:35:04 GMT 50.054920 3.058876 27,625 22 389 1088
2018-11-19 09:34:59 GMT 50.048264 3.054496 27,750 23 391 1024
2018-11-19 09:34:56 GMT 50.042912 3.051007 27,125 22 388 1152
2018-11-19 09:34:53 GMT 50.036255 3.046553 27,525 22 389 1024
2018-11-19 09:34:50 GMT 50.031647 3.043510 27,575 22 389 1088
2018-11-19 09:34:46 GMT 50.026478 3.040169 27,125 22 389 1088
2018-11-19 09:34:43 GMT 50.021301 3.036780 27,500 22 389 1088
2018-11-19 09:34:39 GMT 50.014526 3.032299 27,200 22 388 1152
2018-11-19 09:34:36 GMT 50.010956 3.029986 27,350 22 388 1152
2018-11-19 09:34:32 GMT 50.003265 3.024999 27,200 22 388 1088
2018-11-19 09:34:28 GMT 49.996719 3.020734 27,200 22 387 1088
2018-11-19 09:34:24 GMT 49.989285 3.015896 26,900 22 386 1088
2018-11-19 09:34:19 GMT 49.982952 3.011813 27,050 22 386 1088
2018-11-19 09:34:16 GMT 49.977970 3.008621 26,900 22 386 1152
2018-11-19 09:34:12 GMT 49.970627 3.003893 26,650 22 384 1344
2018-11-19 09:34:09 GMT 49.964516 3.000010 26,425 22 385 1216
2018-11-19 09:34:06 GMT 49.960701 2.997634 26,800 22 385 1216
2018-11-19 09:34:03 GMT 49.955021 2.993923 26,700 22 384 1280
2018-11-19 09:34:00 GMT 49.950439 2.990956 26,650 22 384 1408
2018-11-19 09:33:57 GMT 49.941010 2.984812 26,550 22 384 1472
2018-11-19 09:33:54 GMT 49.941010 2.984812 26,450 20 385 1280
2018-11-19 09:33:50 GMT 49.933228 2.979752 26,300 22 384 1408
2018-11-19 09:33:47 GMT 49.928925 2.977006 26,150 18 385 1280
2018-11-19 09:33:42 GMT 49.920593 2.972308 26,225 17 385 1216
2018-11-19 09:33:37 GMT 49.902649 2.965566 25,950 358 394 1280
2018-11-19 09:33:31 GMT 49.895370 2.963996 25,925 5 391 960
2018-11-19 09:33:27 GMT 49.895370 2.963996 25,875 3 392 832
2018-11-19 09:33:24 GMT 49.889236 2.963201 25,850 358 394 1280
2018-11-19 09:33:21 GMT 49.884842 2.962839 25,850 0 394 832
2018-11-19 09:33:18 GMT 49.879303 2.962767 25,700 358 394 1280
2018-11-19 09:33:13 GMT 49.868042 2.963345 25,675 358 393 1408
2018-11-19 09:33:07 GMT 49.856701 2.964230 25,550 358 392 1472
2018-11-19 09:33:04 GMT 49.853397 2.964453 25,500 358 393 1472
2018-11-19 09:33:01 GMT 49.845978 2.965080 25,325 358 392 1472
2018-11-19 09:32:55 GMT 49.835129 2.965875 25,300 358 392 1408
2018-11-19 09:32:49 GMT 49.826706 2.966598 25,100 358 391 1408
2018-11-19 09:32:46 GMT 49.820393 2.967051 25,000 358 390 1408
2018-11-19 09:32:42 GMT 49.813919 2.967571 24,900 358 390 1408
2018-11-19 09:32:39 GMT 49.808670 2.967971 24,900 358 390 1408
2018-11-19 09:32:36 GMT 49.802216 2.968405 24,200 358 386 1600
2018-11-19 09:32:33 GMT 49.797501 2.968766 24,725 358 389 1344
2018-11-19 09:32:30 GMT 49.789806 2.969278 24,400 358 386 1728
2018-11-19 09:32:27 GMT 49.785645 2.969561 23,775 358 386 1600
2018-11-19 09:32:22 GMT 49.777100 2.970094 24,225 358 387 1408
2018-11-19 09:32:19 GMT 49.770161 2.970614 24,450 358 380 1600
2018-11-19 09:32:15 GMT 49.764343 2.970985 24,300 358 386 1728
2018-11-19 09:32:09 GMT 49.753143 2.971657 24,125 358 386 1728
2018-11-19 09:32:03 GMT 49.744263 2.972163 24,025 358 386 1728
2018-11-19 09:32:00 GMT 49.738041 2.972544 23,400 358 386 1664
2018-11-19 09:31:57 GMT 49.722885 2.973536 23,775 358 385 1408
2018-11-19 09:31:51 GMT 49.715973 2.974029 22,875 18 363 1728
2018-11-19 09:31:48 GMT 49.715973 2.974029 23,550 358 384 1280
2018-11-19 09:31:42 GMT 49.707275 2.974621 22,875 18 363 1728
2018-11-19 09:31:38 GMT 49.697632 2.975216 23,325 358 381 1536
2018-11-19 09:31:32 GMT 49.687546 2.975777 23,175 359 379 1792
2018-11-19 09:31:29 GMT 49.682648 2.976066 23,075 359 380 1728
2018-11-19 09:31:24 GMT 49.675472 2.976478 22,975 359 379 1920
2018-11-19 09:31:20 GMT 49.666855 2.976861 22,875 359 379 1856
2018-11-19 09:31:17 GMT 49.661270 2.977006 22,700 0 378 1856
2018-11-19 09:31:13 GMT 49.653084 2.977072 22,550 12 369 1536
2018-11-19 09:31:10 GMT 49.645248 2.976644 22,425 1 376 1856
2018-11-19 09:31:07 GMT 49.645248 2.976644 22,425 5 373 1920
2018-11-19 09:31:04 GMT 49.639069 2.975633 22,250 9 371 1728
2018-11-19 09:31:00 GMT 49.632507 2.974029 22,025 11 370 1536
2018-11-19 09:30:55 GMT 49.624329 2.971079 22,025 14 368 1536
2018-11-19 09:30:52 GMT 49.619286 2.968832 21,975 18 364 1600
2018-11-19 09:30:49 GMT 49.614990 2.966742 21,900 18 364 1664
2018-11-19 09:30:44 GMT 49.605240 2.961827 21,750 18 363 1728
2018-11-19 09:30:41 GMT 49.597500 2.957920 21,600 17 362 1792
2018-11-19 09:30:33 GMT 49.588440 2.953371 21,400 18 360 1728
2018-11-19 09:30:30 GMT 49.584961 2.951636 21,225 18 360 1728
2018-11-19 09:30:25 GMT 49.575119 2.946721 21,125 18 360 1728
2018-11-19 09:30:22 GMT 49.572083 2.945152 21,125 18 360 1728
2018-11-19 09:30:19 GMT 49.566727 2.942480 20,825 18 358 1728
2018-11-19 09:30:13 GMT 49.558163 2.938175 20,800 18 358 1728
2018-11-19 09:30:10 GMT 49.552963 2.935590 20,600 18 357 1728
2018-11-19 09:30:03 GMT 49.540939 2.929564 20,500 18 355 1664
2018-11-19 09:30:00 GMT 49.536747 2.927411 20,475 18 355 1664
2018-11-19 09:29:52 GMT 49.519665 2.918949 20,150 17 353 1600
2018-11-19 09:29:49 GMT 49.519665 2.918949 20,050 17 353 1600
2018-11-19 09:29:43 GMT 49.505264 2.911738 19,925 17 350 1728
2018-11-19 09:29:40 GMT 49.502300 2.910263 19,800 17 350 1664
2018-11-19 09:29:30 GMT 49.489498 2.903880 19,600 17 347 2048
2018-11-19 09:29:26 GMT 49.485352 2.901836 19,400 17 346 2176
2018-11-19 09:29:19 GMT 49.474640 2.896488 19,175 17 344 1856
2018-11-19 09:29:15 GMT 49.468185 2.893307 19,075 17 346 2432
2018-11-19 09:29:11 GMT 49.462219 2.890295 18,825 17 346 2048
2018-11-19 09:29:08 GMT 49.452209 2.885396 18,700 17 346 1984
2018-11-19 09:29:05 GMT 49.452209 2.885396 18,700 17 346 1984
2018-11-19 09:29:01 GMT 49.440666 2.879680 18,500 17 344 1920
2018-11-19 09:28:58 GMT 49.440666 2.879680 18,200 17 344 1856
2018-11-19 09:28:53 GMT 49.434402 2.876611 18,325 17 343 1920
2018-11-19 09:28:47 GMT 49.425339 2.872150 17,925 17 341 2048
2018-11-19 09:28:43 GMT 49.419155 2.869094 18,025 17 341 2112
2018-11-19 09:28:40 GMT 49.414169 2.866727 17,075 17 339 1856
2018-11-19 09:28:37 GMT 49.409958 2.864615 17,800 17 340 2176
2018-11-19 09:28:31 GMT 49.399750 2.859685 17,525 17 339 1920
2018-11-19 09:28:26 GMT 49.385361 2.852759 17,225 17 336 1856
2018-11-19 09:28:20 GMT 49.385361 2.852759 17,225 17 337 1856
2018-11-19 09:28:17 GMT 49.376049 2.848278 17,075 13 332 3008
2018-11-19 09:28:11 GMT 49.371582 2.846109 16,925 17 334 1984
2018-11-19 09:28:05 GMT 49.357101 2.839604 16,675 14 333 1856
2018-11-19 09:27:58 GMT 49.352215 2.838159 16,525 8 334 1856
2018-11-19 09:27:55 GMT 49.345963 2.837078 16,400 3 336 1856
2018-11-19 09:27:52 GMT 49.342670 2.836786 16,325 359 337 1920
2018-11-19 09:27:49 GMT 49.336807 2.836713 16,200 357 337 2112
2018-11-19 09:27:43 GMT 49.320278 2.838809 15,650 355 337 2560
2018-11-19 09:27:38 GMT 49.320278 2.838809 15,775 355 337 2688
2018-11-19 09:27:34 GMT 49.312317 2.839966 15,525 355 337 2944
2018-11-19 09:27:31 GMT 49.307968 2.840529 15,375 355 338 3200
2018-11-19 09:27:28 GMT 49.305817 2.840811 15,325 355 338 3072
2018-11-19 09:27:24 GMT 49.298775 2.841773 15,125 355 339 3328
2018-11-19 09:27:21 GMT 49.293465 2.842423 14,500 356 338 3456
2018-11-19 09:27:17 GMT 49.289017 2.842853 14,725 359 338 3648
2018-11-19 09:27:14 GMT 49.282745 2.842712 14,475 5 335 3584
2018-11-19 09:27:09 GMT 49.275742 2.841445 14,200 10 333 3136
2018-11-19 09:27:06 GMT 49.271957 2.840327 14,075 13 332 3008
2018-11-19 09:27:03 GMT 49.266327 2.838014 13,900 19 330 2688
2018-11-19 09:27:00 GMT 49.262970 2.836233 13,700 22 328 2560
2018-11-19 09:26:56 GMT 49.257294 2.832521 13,650 26 327 2688
2018-11-19 09:26:53 GMT 49.251755 2.828205 13,425 27 326 2560
2018-11-19 09:26:50 GMT 49.248276 2.825458 13,325 27 325 2304
2018-11-19 09:26:47 GMT 49.243610 2.821824 13,200 27 324 1792
2018-11-19 09:26:44 GMT 49.239651 2.818571 13,100 27 322 1600
2018-11-19 09:26:39 GMT 49.234344 2.814307 12,975 27 318 1344
2018-11-19 09:26:36 GMT 49.229645 2.810548 12,900 27 315 1280
2018-11-19 09:26:32 GMT 49.225498 2.807224 12,850 27 314 1344
2018-11-19 09:26:29 GMT 49.220764 2.803415 12,775 27 309 1408
2018-11-19 09:26:25 GMT 49.216919 2.800457 12,700 26 307 1408
2018-11-19 09:26:22 GMT 49.213120 2.797640 12,625 24 304 1472
2018-11-19 09:26:16 GMT 49.204285 2.792006 12,400 12 302 2176
2018-11-19 09:26:13 GMT 49.200806 2.790386 12,350 12 302 2176
2018-11-19 09:26:09 GMT 49.195312 2.788837 12,250 9 302 2496
2018-11-19 09:26:06 GMT 49.190445 2.788070 12,100 1 304 2816
2018-11-19 09:26:02 GMT 49.185417 2.787998 11,875 359 306 2816
2018-11-19 09:25:59 GMT 49.179611 2.788274 11,625 359 305 2688
2018-11-19 09:25:56 GMT 49.176945 2.788431 11,500 359 304 2176
2018-11-19 09:25:52 GMT 49.166702 2.788908 11,325 359 294 1280
2018-11-19 09:25:44 GMT 49.160568 2.789119 11,200 359 297 1408
2018-11-19 09:25:40 GMT 49.153473 2.789471 11,075 359 290 1280
2018-11-19 09:25:33 GMT 49.145462 2.789753 10,900 359 285 1280
2018-11-19 09:25:29 GMT 49.139923 2.789894 10,850 359 280 1344
2018-11-19 09:25:23 GMT 49.132534 2.790166 10,725 359 271 1472
2018-11-19 09:25:20 GMT 49.129211 2.790246 10,650 359 270 1472
2018-11-19 09:25:17 GMT 49.123901 2.790457 10,550 359 265 1792
2018-11-19 09:25:13 GMT 49.120056 2.790598 10,475 359 264 1920
2018-11-19 09:25:09 GMT 49.115662 2.790739 10,400 359 262 2240
2018-11-19 09:25:06 GMT 49.111084 2.790950 10,125 359 260 2944
2018-11-19 09:25:03 GMT 49.107582 2.791106 9,975 359 259 3072
2018-11-19 09:24:59 GMT 49.103535 2.791250 9,825 359 259 3200
2018-11-19 09:24:56 GMT 49.099319 2.791372 9,600 359 259 3136
2018-11-19 09:24:53 GMT 49.094456 2.791539 9,375 0 258 3200
2018-11-19 09:24:50 GMT 49.092033 2.791612 9,300 0 258 3264
2018-11-19 09:24:47 GMT 49.088379 2.791725 9,100 0 258 3328
2018-11-19 09:24:42 GMT 49.082306 2.791901 8,800 359 259 3328
2018-11-19 09:24:38 GMT 49.078262 2.792077 8,650 359 259 3008
2018-11-19 09:24:32 GMT 49.071274 2.792479 8,250 0 258 3072
2018-11-19 09:24:29 GMT 49.067551 2.792640 8,250 0 258 3072
2018-11-19 09:24:26 GMT 49.063431 2.792851 8,025 358 258 3136
2018-11-19 09:24:22 GMT 49.057755 2.792992 7,725 11 252 3520
2018-11-19 09:24:19 GMT 49.055374 2.792711 7,600 8 253 3392
2018-11-19 09:24:15 GMT 49.049835 2.791443 7,325 15 251 3904
2018-11-19 09:24:10 GMT 49.044891 2.789330 7,025 20 250 4224
2018-11-19 09:24:06 GMT 49.040546 2.786697 6,675 25 253 3584
2018-11-19 09:24:00 GMT 49.034031 2.781998 6,350 26 254 3200
2018-11-19 09:23:54 GMT 49.027981 2.777228 6,100 28 252 2944
2018-11-19 09:23:50 GMT 49.023331 2.773414 5,775 29 249 3072
2018-11-19 09:23:45 GMT 49.019089 2.769639 5,450 37 246 2688
2018-11-19 09:23:42 GMT 49.013947 2.763554 5,325 43 244 2560
2018-11-19 09:23:39 GMT 49.013947 2.763554 5,300 45 242 2496
2018-11-19 09:23:32 GMT 49.009033 2.754677 4,925 59 235 2240
2018-11-19 09:23:29 GMT 49.007217 2.749681 4,825 69 229 1792
2018-11-19 09:23:22 GMT 49.004883 2.739610 4,600 82 220 1344
2018-11-19 09:23:19 GMT 49.004284 2.734873 4,575 84 219 1088
2018-11-19 09:23:12 GMT 49.003677 2.723525 4,425 86 201 960
2018-11-19 09:23:09 GMT 49.003490 2.719694 4,375 86 201 960
2018-11-19 09:23:03 GMT 49.003143 2.711229 4,275 86 189 832
2018-11-19 09:23:00 GMT 49.002934 2.706395 4,200 86 182 576
2018-11-19 09:22:57 GMT 49.002869 2.703693 4,200 85 175 1024
2018-11-19 09:22:50 GMT 49.002422 2.695192 4,100 85 168 960
2018-11-19 09:22:41 GMT 49.001862 2.684856 3,900 84 158 1216
2018-11-19 09:22:38 GMT 49.001678 2.681861 3,850 84 156 1152
2018-11-19 09:22:31 GMT 49.001209 2.674014 3,675 84 147 1536
2018-11-19 09:22:28 GMT 49.001038 2.671016 3,600 85 145 2048
2018-11-19 09:22:21 GMT 49.000652 2.663606 3,325 85 144 2304
2018-11-19 09:22:18 GMT 49.000488 2.660452 3,175 86 144 2304
2018-11-19 09:22:14 GMT 49.000278 2.656234 3,050 86 145 2368
2018-11-19 09:22:10 GMT 49.000168 2.652283 2,875 87 145 2176
2018-11-19 09:22:07 GMT 49.000095 2.649151 2,425 88 144 2176
2018-11-19 09:21:58 GMT 48.999893 2.639324 2,375 89 143 2176
2018-11-19 09:21:55 GMT 48.999863 2.637008 2,325 89 142 2496
2018-11-19 09:21:49 GMT 48.999802 2.631437 2,025 88 145 3520
2018-11-19 09:21:46 GMT 48.999722 2.627901 1,825 87 150 3136
2018-11-19 09:21:35 GMT 48.999252 2.616507 1,225 84 155 3328
2018-11-19 09:21:27 GMT 48.998791 2.608169 825 84 161 2624
2018-11-19 09:21:24 GMT 48.998512 2.604338 675 84 162 1920
2018-11-19 09:21:14 GMT 48.997833 2.592703 350 85 160 2176
2018-11-19 09:20:35 GMT 48.996208 2.562435 0 84 37
2018-11-19 09:20:32 GMT 48.996174 2.561694 0 84 23
2018-11-19 09:20:20 GMT 48.996140 2.561153 0 84 0
2018-11-19 09:20:09 GMT 48.996136 2.561134 0 84 2
2018-11-19 09:19:52 GMT 48.996185 2.560519 0 157 9
2018-11-19 09:19:49 GMT 48.996323 2.560447 0 174 11
2018-11-19 09:18:15 GMT 48.997101 2.560343 0 174 0
2018-11-19 09:18:05 GMT 48.997112 2.560343 0 174 0
2018-11-19 09:17:54 GMT 48.997284 2.560307 0 177 6
2018-11-19 09:17:26 GMT 48.998096 2.562367 0 264 26
2018-11-19 09:17:13 GMT 48.998211 2.564603 0 264 26
2018-11-19 09:17:10 GMT 48.998245 2.565132 0 264 25

Making use of Plane Finder data

You are free to use the raw flight data, aircraft information and images provided in this report for your own purposes provided the data is correctly attributed to Plane Finder. We ask that you please credit Plane Finder and link to planefinder.net in close proximity to the content.

Optionally one of the following logos (no smaller then 150x24px) can be used and must link to planefinder.net

Embedding the Plane Finder map

You are welcome to embed the Plane Finder playback map on your website to offer visitors a more interactive experience. We suggest using the following HTML code:

<iframe src="//planefinder.net/data/report/AF1464-F-GRHT-7700-squawk-2018-11-19/map" width="800" height="600" seamless="seamless"></iframe>

Where our data comes from

Plane Finder has a global network of data feeds and antenna radars that receive data broadcast directly from aircraft. The primary technologies used are ADS-B and MLAT. We also show feeds from the FAA and a FLARM glider feed.

Click here to find out more about the Plane Finder network.

How we collect our data